createdAt,value
2019-05-14T00:00:51.990Z,18.67
2019-05-14T00:01:51.435Z,18.64
2019-05-14T00:02:51.875Z,18.62
2019-05-14T00:03:51.530Z,18.67
2019-05-14T00:04:51.273Z,18.72
2019-05-14T00:05:51.491Z,18.70
2019-05-14T00:06:51.804Z,18.79
2019-05-14T00:07:51.970Z,18.74
2019-05-14T00:08:49.411Z,18.74
2019-05-14T00:09:51.688Z,18.79
2019-05-14T00:10:51.795Z,18.72
2019-05-14T00:11:51.303Z,18.74
2019-05-14T00:12:51.299Z,18.74
2019-05-14T00:13:49.354Z,18.76
2019-05-14T00:14:51.454Z,18.72
2019-05-14T00:15:49.335Z,18.73
2019-05-14T00:16:51.157Z,18.87
2019-05-14T00:17:52.037Z,19.31
2019-05-14T00:18:51.180Z,19.64
2019-05-14T00:20:03.755Z,19.88
2019-05-14T00:21:14.095Z,20.05
2019-05-14T00:22:14.084Z,19.94
2019-05-14T00:23:14.177Z,20.06
2019-05-14T00:24:14.068Z,20.21
2019-05-14T00:25:14.054Z,20.41
2019-05-14T00:26:14.045Z,20.49
2019-05-14T00:27:14.031Z,20.42
2019-05-14T00:28:14.020Z,20.24
2019-05-14T00:29:14.110Z,19.78
2019-05-14T00:30:14.003Z,19.45
2019-05-14T00:31:13.992Z,19.20
2019-05-14T00:32:13.979Z,19.10
2019-05-14T00:33:13.966Z,19.05
2019-05-14T00:34:14.106Z,19.04
2019-05-14T00:35:13.954Z,19.10
2019-05-14T00:36:13.935Z,19.14
2019-05-14T00:37:13.924Z,19.20
2019-05-14T00:38:13.914Z,19.24
2019-05-14T00:39:13.900Z,19.27
2019-05-14T00:40:13.945Z,19.20
2019-05-14T00:41:13.882Z,19.39
2019-05-14T00:42:13.871Z,19.54
2019-05-14T00:43:13.860Z,19.71
2019-05-14T00:44:13.849Z,19.95
2019-05-14T00:45:13.841Z,20.13
2019-05-14T00:46:13.875Z,20.21
2019-05-14T00:47:13.817Z,20.31
2019-05-14T00:48:13.810Z,20.46
2019-05-14T00:49:13.796Z,20.60
2019-05-14T00:50:13.784Z,20.65
2019-05-14T00:51:13.923Z,20.50
2019-05-14T00:52:13.764Z,20.45
2019-05-14T00:53:13.756Z,20.53
2019-05-14T00:54:13.742Z,20.60
2019-05-14T00:55:13.729Z,20.46
2019-05-14T00:56:13.820Z,20.64
2019-05-14T00:57:13.712Z,20.82
2019-05-14T00:58:13.705Z,21.04
2019-05-14T00:59:13.686Z,21.20
2019-05-14T01:00:13.678Z,21.29
2019-05-14T01:01:13.718Z,21.27
2019-05-14T01:02:13.659Z,21.29
2019-05-14T01:03:13.648Z,21.32
2019-05-14T01:04:13.634Z,21.30
2019-05-14T01:05:13.627Z,21.42
2019-05-14T01:06:13.616Z,21.51
2019-05-14T01:07:13.758Z,21.75
2019-05-14T01:08:13.597Z,21.97
2019-05-14T01:09:13.587Z,21.81
2019-05-14T01:10:13.571Z,21.82
2019-05-14T01:11:13.563Z,22.00
2019-05-14T01:12:13.553Z,21.96
2019-05-14T01:13:13.597Z,21.98
2019-05-14T01:14:13.531Z,22.03
2019-05-14T01:15:14.320Z,22.05
2019-05-14T01:16:13.512Z,22.21
2019-05-14T01:17:13.510Z,22.52
2019-05-14T01:18:13.541Z,22.87
2019-05-14T01:19:13.481Z,23.17
2019-05-14T01:20:13.476Z,23.46
2019-05-14T01:21:13.460Z,23.69
2019-05-14T01:22:13.448Z,23.70
2019-05-14T01:23:13.593Z,23.59
2019-05-14T01:24:13.432Z,23.67
2019-05-14T01:25:13.422Z,23.71
2019-05-14T01:26:13.412Z,24.05
2019-05-14T01:27:13.394Z,24.47
2019-05-14T01:28:13.383Z,24.87
2019-05-14T01:29:13.425Z,24.93
2019-05-14T01:30:13.363Z,25.06
2019-05-14T01:31:14.805Z,25.11
2019-05-14T01:32:13.346Z,25.33
2019-05-14T01:33:13.333Z,25.19
2019-05-14T01:34:13.371Z,25.00
2019-05-14T01:35:13.312Z,25.11
2019-05-14T01:36:13.307Z,25.29
2019-05-14T01:37:13.292Z,25.30
2019-05-14T01:38:13.281Z,25.41
2019-05-14T01:39:13.422Z,25.72
2019-05-14T01:40:13.264Z,25.64
2019-05-14T01:41:13.253Z,25.71
2019-05-14T01:42:13.239Z,25.80
2019-05-14T01:43:13.231Z,26.14
2019-05-14T01:44:13.222Z,26.53
2019-05-14T01:45:23.914Z,26.67
2019-05-14T01:46:14.295Z,26.98
2019-05-14T01:47:13.188Z,27.21
2019-05-14T01:48:13.177Z,27.61
2019-05-14T01:49:13.168Z,27.90
2019-05-14T01:50:13.207Z,28.13
2019-05-14T01:51:13.148Z,28.46
2019-05-14T01:52:13.138Z,28.75
2019-05-14T01:53:13.128Z,28.97
2019-05-14T01:54:13.117Z,29.30
2019-05-14T01:55:13.355Z,29.58
2019-05-14T01:56:13.096Z,29.97
2019-05-14T01:57:13.085Z,30.09
2019-05-14T01:58:13.074Z,30.23
2019-05-14T01:59:13.068Z,30.53
2019-05-14T02:00:13.060Z,30.53
2019-05-14T02:01:13.101Z,30.40
2019-05-14T02:02:13.036Z,30.58
2019-05-14T02:03:13.026Z,30.89
2019-05-14T02:04:13.018Z,30.82
2019-05-14T02:05:13.015Z,30.98
2019-05-14T02:06:13.000Z,31.17
2019-05-14T02:07:15.889Z,31.38
2019-05-14T02:08:12.976Z,31.46
2019-05-14T02:09:12.969Z,31.68
2019-05-14T02:10:12.955Z,31.83
2019-05-14T02:11:12.946Z,31.97
2019-05-14T02:12:12.936Z,32.21
2019-05-14T02:13:12.982Z,32.35
2019-05-14T02:14:12.915Z,32.48
2019-05-14T02:15:12.902Z,32.66
2019-05-14T02:16:13.204Z,32.96
2019-05-14T02:17:12.883Z,33.15
2019-05-14T02:18:12.879Z,33.36
2019-05-14T02:19:13.014Z,33.60
2019-05-14T02:20:12.852Z,33.81
2019-05-14T02:21:12.841Z,33.89
2019-05-14T02:22:12.833Z,33.93
2019-05-14T02:23:12.820Z,33.89
2019-05-14T02:24:12.815Z,34.17
2019-05-14T02:25:12.852Z,34.35
2019-05-14T02:26:12.793Z,34.51
2019-05-14T02:27:12.780Z,34.73
2019-05-14T02:28:12.771Z,34.78
2019-05-14T02:29:12.761Z,35.12
2019-05-14T02:30:12.751Z,34.71
2019-05-14T02:31:12.799Z,34.13
2019-05-14T02:32:12.737Z,34.24
2019-05-14T02:33:12.740Z,34.54
2019-05-14T02:34:12.717Z,34.95
2019-05-14T02:35:12.713Z,35.10
2019-05-14T02:36:12.694Z,35.16
2019-05-14T02:37:12.833Z,35.39
2019-05-14T02:38:12.680Z,35.73
2019-05-14T02:39:12.661Z,36.00
2019-05-14T02:40:12.650Z,35.82
2019-05-14T02:41:12.645Z,35.47
2019-05-14T02:42:12.632Z,35.10
2019-05-14T02:43:12.673Z,34.82
2019-05-14T02:44:12.610Z,34.91
2019-05-14T02:45:12.602Z,34.76
2019-05-14T02:46:17.229Z,35.35
2019-05-14T02:47:39.707Z,35.50
2019-05-14T02:48:40.304Z,35.12
2019-05-14T02:49:39.916Z,34.91
2019-05-14T02:50:39.615Z,34.75
2019-05-14T02:51:39.099Z,34.61
2019-05-14T02:52:40.275Z,34.48
2019-05-14T02:53:39.130Z,34.07
2019-05-14T02:54:40.489Z,33.51
2019-05-14T02:55:39.072Z,32.93
2019-05-14T02:56:40.116Z,32.58
2019-05-14T02:57:39.395Z,32.28
2019-05-14T02:58:40.171Z,31.64
2019-05-14T02:59:39.446Z,31.18
2019-05-14T03:00:40.470Z,30.55
2019-05-14T03:01:40.588Z,30.14
2019-05-14T03:02:40.029Z,29.90
2019-05-14T03:03:40.137Z,29.58
2019-05-14T03:04:39.537Z,29.32
2019-05-14T03:05:39.929Z,29.09
2019-05-14T03:06:39.531Z,29.19
2019-05-14T03:07:39.284Z,29.24
2019-05-14T03:08:39.030Z,29.33
2019-05-14T03:09:40.323Z,29.75
2019-05-14T03:10:39.996Z,30.92
2019-05-14T03:11:40.379Z,31.50
2019-05-14T03:12:39.648Z,31.92
2019-05-14T03:13:40.077Z,32.05
2019-05-14T03:14:39.609Z,32.20
2019-05-14T03:15:39.128Z,32.53
2019-05-14T03:16:40.275Z,32.96
2019-05-14T03:17:40.270Z,33.28
2019-05-14T03:18:39.608Z,33.69
2019-05-14T03:19:40.283Z,34.16
2019-05-14T03:20:39.042Z,34.48
2019-05-14T03:21:39.598Z,34.69
2019-05-14T03:22:46.862Z,34.85
2019-05-14T03:23:39.229Z,35.09
2019-05-14T03:24:39.649Z,35.36
2019-05-14T03:25:39.788Z,35.70
2019-05-14T03:26:39.846Z,36.03
2019-05-14T03:27:40.148Z,36.19
2019-05-14T03:28:39.828Z,36.30
2019-05-14T03:29:39.869Z,36.82
2019-05-14T03:30:41.753Z,37.16
2019-05-14T03:31:41.879Z,37.38
2019-05-14T03:33:03.150Z,37.73
2019-05-14T03:34:03.291Z,37.85
2019-05-14T03:35:04.063Z,37.88
2019-05-14T03:36:09.537Z,38.16
2019-05-14T03:37:30.630Z,38.22
2019-05-14T03:38:29.481Z,38.41
2019-05-14T03:39:29.403Z,38.46
2019-05-14T03:40:29.212Z,38.52
2019-05-14T03:41:26.486Z,38.83
2019-05-14T03:42:29.027Z,38.75
2019-05-14T03:43:29.374Z,38.78
2019-05-14T03:44:29.138Z,38.86
2019-05-14T03:45:29.677Z,38.87
2019-05-14T03:46:44.289Z,39.08
2019-05-14T03:47:51.235Z,39.26
2019-05-14T03:48:51.226Z,39.38
2019-05-14T03:49:51.235Z,39.57
2019-05-14T03:50:51.266Z,39.81
2019-05-14T03:51:51.215Z,39.92
2019-05-14T03:52:51.197Z,40.00
2019-05-14T03:54:01.254Z,39.93
2019-05-14T03:55:15.980Z,39.51
2019-05-14T03:56:19.028Z,39.13
2019-05-14T03:57:15.964Z,38.85
2019-05-14T03:58:20.635Z,38.82
2019-05-14T03:59:16.042Z,38.71
2019-05-14T04:00:18.764Z,38.67
2019-05-14T04:01:15.920Z,38.33
2019-05-14T04:02:19.551Z,38.32
2019-05-14T04:03:15.901Z,38.16
2019-05-14T04:04:19.185Z,38.00
2019-05-14T04:05:18.994Z,37.35
2019-05-14T04:06:40.683Z,36.66
2019-05-14T04:07:40.728Z,36.37
2019-05-14T04:08:40.666Z,36.18
2019-05-14T04:09:40.671Z,36.14
2019-05-14T04:10:49.057Z,36.28
2019-05-14T04:12:05.448Z,36.48
2019-05-14T04:13:08.258Z,36.53
2019-05-14T04:14:05.435Z,36.55
2019-05-14T04:15:05.417Z,36.53
2019-05-14T04:16:05.404Z,36.41
2019-05-14T04:17:11.226Z,36.41
2019-05-14T04:18:09.024Z,36.45
2019-05-14T04:19:05.374Z,36.18
2019-05-14T04:20:05.368Z,36.10
2019-05-14T04:21:05.356Z,36.08
2019-05-14T04:22:05.386Z,35.73
2019-05-14T04:23:05.342Z,35.86
2019-05-14T04:24:05.485Z,35.74
2019-05-14T04:25:05.319Z,35.89
2019-05-14T04:26:05.307Z,36.19
2019-05-14T04:27:11.549Z,36.34
2019-05-14T04:28:30.107Z,36.53
2019-05-14T04:29:30.755Z,36.86
2019-05-14T04:30:30.090Z,37.13
2019-05-14T04:31:30.090Z,37.48
2019-05-14T04:32:30.163Z,37.82
2019-05-14T04:33:30.672Z,38.07
2019-05-14T04:34:30.324Z,38.27
2019-05-14T04:35:30.030Z,38.36
2019-05-14T04:36:30.402Z,38.51
2019-05-14T04:37:30.012Z,38.60
2019-05-14T04:38:30.346Z,38.79
2019-05-14T04:39:30.971Z,38.90
2019-05-14T04:40:29.985Z,38.94
2019-05-14T04:41:30.164Z,39.26
2019-05-14T04:42:29.962Z,39.38
2019-05-14T04:43:29.956Z,39.45
2019-05-14T04:44:30.127Z,39.54
2019-05-14T04:45:30.240Z,39.63
2019-05-14T04:46:30.473Z,39.63
2019-05-14T04:47:35.937Z,39.64
2019-05-14T04:48:54.720Z,39.69
2019-05-14T04:49:54.709Z,39.48
2019-05-14T04:50:54.748Z,39.58
2019-05-14T04:51:54.688Z,39.27
2019-05-14T04:52:54.678Z,38.94
2019-05-14T04:53:54.673Z,38.48
2019-05-14T04:54:54.665Z,37.67
2019-05-14T04:55:54.651Z,37.39
2019-05-14T04:56:54.795Z,37.16
2019-05-14T04:57:54.630Z,36.99
2019-05-14T04:58:54.623Z,36.87
2019-05-14T04:59:54.613Z,37.01
2019-05-14T05:00:54.601Z,37.02
2019-05-14T05:01:54.592Z,37.19
2019-05-14T05:02:54.634Z,37.02
2019-05-14T05:03:54.580Z,36.66
2019-05-14T05:04:54.566Z,36.51
2019-05-14T05:05:54.555Z,36.57
2019-05-14T05:06:54.548Z,36.72
2019-05-14T05:07:54.536Z,36.90
2019-05-14T05:08:54.574Z,36.79
2019-05-14T05:09:54.520Z,36.92
2019-05-14T05:10:54.507Z,36.87
2019-05-14T05:11:54.500Z,37.02
2019-05-14T05:12:54.487Z,37.17
2019-05-14T05:13:54.477Z,37.09
2019-05-14T05:14:54.866Z,37.05
2019-05-14T05:15:54.464Z,37.13
2019-05-14T05:16:54.453Z,37.14
2019-05-14T05:17:54.438Z,37.24
2019-05-14T05:18:54.426Z,37.46
2019-05-14T05:19:54.418Z,37.35
2019-05-14T05:20:54.465Z,37.42
2019-05-14T05:21:54.397Z,37.24
2019-05-14T05:22:54.405Z,37.01
2019-05-14T05:23:54.374Z,36.79
2019-05-14T05:24:54.367Z,36.35
2019-05-14T05:25:54.357Z,35.79
2019-05-14T05:26:54.396Z,35.63
2019-05-14T05:28:19.242Z,35.01
2019-05-14T05:29:19.136Z,34.83
2019-05-14T05:30:19.159Z,34.76
2019-05-14T05:31:19.118Z,34.87
2019-05-14T05:32:19.684Z,34.93
2019-05-14T05:33:19.095Z,34.85
2019-05-14T05:34:19.395Z,34.95
2019-05-14T05:35:19.075Z,35.06
2019-05-14T05:36:19.065Z,35.14
2019-05-14T05:37:19.172Z,35.00
2019-05-14T05:38:19.092Z,34.76
2019-05-14T05:39:19.104Z,34.58
2019-05-14T05:40:19.810Z,34.41
2019-05-14T05:41:19.409Z,34.16
2019-05-14T05:42:19.113Z,33.89
2019-05-14T05:43:19.219Z,33.59
2019-05-14T05:44:19.083Z,33.30
2019-05-14T05:45:18.975Z,33.01
2019-05-14T05:46:19.410Z,32.89
2019-05-14T05:47:18.955Z,32.71
2019-05-14T05:48:18.979Z,32.69
2019-05-14T05:49:18.982Z,32.61
2019-05-14T05:50:19.450Z,32.41
2019-05-14T05:51:19.080Z,32.36
2019-05-14T05:52:19.271Z,32.21
2019-05-14T05:53:19.393Z,32.02
2019-05-14T05:54:19.062Z,31.61
2019-05-14T05:55:19.221Z,31.50
2019-05-14T05:56:18.978Z,31.39
2019-05-14T05:57:18.939Z,31.27
2019-05-14T05:58:19.650Z,31.24
2019-05-14T05:59:19.162Z,31.17
2019-05-14T06:00:18.989Z,31.10
2019-05-14T06:01:19.590Z,31.15
2019-05-14T06:02:18.890Z,31.17
2019-05-14T06:03:21.023Z,31.08
2019-05-14T06:04:18.833Z,31.04
2019-05-14T06:05:18.781Z,31.03
2019-05-14T06:06:19.388Z,30.93
2019-05-14T06:07:18.763Z,30.74
2019-05-14T06:08:18.991Z,30.61
2019-05-14T06:09:18.734Z,30.63
2019-05-14T06:10:18.874Z,30.51
2019-05-14T06:11:19.399Z,30.33
2019-05-14T06:12:19.140Z,30.27
2019-05-14T06:13:18.695Z,30.31
2019-05-14T06:14:18.766Z,30.30
2019-05-14T06:15:19.258Z,30.30
2019-05-14T06:16:18.907Z,30.24
2019-05-14T06:17:19.270Z,30.27
2019-05-14T06:18:21.956Z,30.30
2019-05-14T06:19:18.679Z,30.21
2019-05-14T06:20:19.049Z,29.94
2019-05-14T06:21:19.304Z,29.81
2019-05-14T06:22:19.066Z,29.59
2019-05-14T06:23:18.982Z,29.40
2019-05-14T06:24:19.298Z,29.44
2019-05-14T06:25:20.837Z,29.52
2019-05-14T06:26:19.306Z,29.56
2019-05-14T06:27:18.546Z,29.51
2019-05-14T06:28:20.939Z,29.43
2019-05-14T06:29:18.744Z,29.43
2019-05-14T06:30:18.516Z,29.42
2019-05-14T06:31:19.279Z,29.42
2019-05-14T06:32:18.884Z,29.33
2019-05-14T06:33:19.658Z,29.32
2019-05-14T06:34:18.892Z,29.22
2019-05-14T06:35:19.343Z,29.27
2019-05-14T06:36:19.525Z,29.30
2019-05-14T06:37:19.082Z,29.36
2019-05-14T06:38:18.670Z,29.37
2019-05-14T06:39:18.474Z,29.33
2019-05-14T06:40:19.319Z,29.34
2019-05-14T06:41:19.127Z,29.36
2019-05-14T06:42:19.249Z,29.25
2019-05-14T06:43:18.975Z,29.34
2019-05-14T06:44:18.855Z,29.34
2019-05-14T06:45:18.811Z,29.32
2019-05-14T06:46:19.303Z,29.27
2019-05-14T06:47:18.566Z,29.17
2019-05-14T06:48:30.121Z,29.06
2019-05-14T06:49:43.126Z,29.03
2019-05-14T06:50:43.114Z,28.93
2019-05-14T06:51:43.153Z,28.87
2019-05-14T06:52:43.094Z,28.95
2019-05-14T06:53:43.083Z,29.07
2019-05-14T06:54:43.073Z,29.12
2019-05-14T06:55:43.124Z,29.12
2019-05-14T06:56:44.961Z,29.07
2019-05-14T06:57:43.100Z,29.12
2019-05-14T06:58:43.092Z,29.09
2019-05-14T06:59:43.079Z,29.18
2019-05-14T07:00:43.068Z,29.09
2019-05-14T07:01:43.064Z,29.09
2019-05-14T07:02:44.198Z,29.09
2019-05-14T07:03:43.038Z,29.02
2019-05-14T07:04:43.029Z,29.07
2019-05-14T07:05:43.023Z,29.14
2019-05-14T07:06:43.016Z,29.02
2019-05-14T07:07:43.013Z,29.15
2019-05-14T07:08:43.886Z,29.15
2019-05-14T07:09:42.979Z,29.24
2019-05-14T07:10:42.969Z,29.33
2019-05-14T07:11:42.958Z,29.32
2019-05-14T07:12:42.946Z,29.24
2019-05-14T07:13:42.937Z,29.18
2019-05-14T07:14:43.176Z,29.17
2019-05-14T07:15:42.913Z,29.03
2019-05-14T07:16:42.915Z,28.96
2019-05-14T07:17:42.895Z,28.97
2019-05-14T07:18:49.298Z,28.90
2019-05-14T07:20:08.869Z,28.87
2019-05-14T07:21:08.356Z,29.02
2019-05-14T07:22:09.028Z,29.15
2019-05-14T07:23:08.304Z,29.06
2019-05-14T07:24:08.764Z,29.09
2019-05-14T07:25:09.845Z,29.14
2019-05-14T07:26:08.481Z,29.06
2019-05-14T07:27:09.441Z,28.87
2019-05-14T07:28:08.819Z,28.77
2019-05-14T07:29:11.507Z,28.88
2019-05-14T07:30:08.958Z,28.90
2019-05-14T07:31:32.834Z,29.10
2019-05-14T07:32:32.625Z,29.07
2019-05-14T07:33:32.611Z,29.03
2019-05-14T07:34:32.604Z,29.06
2019-05-14T07:35:32.592Z,29.07
2019-05-14T07:36:32.684Z,29.02
2019-05-14T07:37:32.572Z,29.06
2019-05-14T07:38:32.567Z,29.14
2019-05-14T07:39:32.584Z,29.18
2019-05-14T07:40:32.745Z,29.28
2019-05-14T07:41:32.530Z,29.28
2019-05-14T07:42:58.312Z,29.28
2019-05-14T07:43:58.634Z,29.30
2019-05-14T07:44:58.922Z,29.19
2019-05-14T07:45:58.228Z,29.14
2019-05-14T07:46:58.945Z,29.10
2019-05-14T07:47:58.256Z,29.03
2019-05-14T07:49:07.183Z,28.82
2019-05-14T07:49:58.545Z,28.65
2019-05-14T07:51:00.078Z,28.68
2019-05-14T07:51:58.741Z,28.80
2019-05-14T07:52:58.693Z,28.90
2019-05-14T07:53:58.063Z,28.90
2019-05-14T07:54:58.650Z,29.03
2019-05-14T07:55:59.161Z,29.12
2019-05-14T07:56:59.030Z,29.30
2019-05-14T07:57:58.711Z,29.33
2019-05-14T07:58:58.481Z,29.37
2019-05-14T07:59:58.913Z,29.49
2019-05-14T08:00:58.579Z,29.58
2019-05-14T08:01:58.629Z,29.71
2019-05-14T08:02:58.149Z,29.86
2019-05-14T08:04:00.192Z,29.86
2019-05-14T08:04:58.032Z,29.99
2019-05-14T08:05:58.895Z,30.07
2019-05-14T08:06:58.194Z,29.97
2019-05-14T08:07:58.587Z,30.07
2019-05-14T08:08:59.246Z,30.08
2019-05-14T08:09:58.346Z,30.09
2019-05-14T08:10:59.194Z,30.05
2019-05-14T08:11:58.704Z,30.18
2019-05-14T08:12:58.866Z,30.02
2019-05-14T08:13:58.501Z,30.07
2019-05-14T08:15:14.274Z,29.96
2019-05-14T08:15:58.534Z,30.02
2019-05-14T08:16:59.545Z,30.09
2019-05-14T08:17:58.566Z,30.07
2019-05-14T08:18:57.157Z,29.90
2019-05-14T08:19:58.300Z,29.90
2019-05-14T08:20:59.153Z,29.90
2019-05-14T08:21:58.712Z,29.92
2019-05-14T08:22:58.267Z,29.92
2019-05-14T08:23:59.260Z,29.99
2019-05-14T08:24:58.087Z,29.97
2019-05-14T08:25:58.669Z,29.99
2019-05-14T08:26:57.957Z,30.03
2019-05-14T08:27:58.689Z,29.96
2019-05-14T08:28:58.063Z,30.00
2019-05-14T08:29:58.927Z,30.07
2019-05-14T08:30:58.463Z,30.14
2019-05-14T08:31:58.267Z,30.30
2019-05-14T08:32:58.342Z,30.34
2019-05-14T08:33:59.156Z,30.19
2019-05-14T08:34:58.450Z,29.77
2019-05-14T08:35:58.190Z,29.27
2019-05-14T08:36:58.832Z,29.34
2019-05-14T08:38:07.331Z,29.55
2019-05-14T08:39:21.747Z,29.54
2019-05-14T08:40:21.989Z,29.49
2019-05-14T08:41:21.739Z,29.56
2019-05-14T08:42:21.718Z,29.59
2019-05-14T08:43:21.718Z,29.71
2019-05-14T08:44:21.696Z,29.54
2019-05-14T08:45:21.692Z,29.71
2019-05-14T08:46:21.728Z,29.89
2019-05-14T08:47:21.666Z,29.86
2019-05-14T08:48:21.655Z,29.87
2019-05-14T08:49:37.166Z,29.84
2019-05-14T08:50:48.131Z,29.78
2019-05-14T08:51:49.188Z,29.78
2019-05-14T08:52:48.375Z,29.87
2019-05-14T08:53:49.769Z,30.02
2019-05-14T08:54:46.415Z,30.26
2019-05-14T08:55:48.642Z,30.19
2019-05-14T08:56:48.869Z,30.30
2019-05-14T08:57:48.713Z,30.26
2019-05-14T08:58:49.176Z,30.34
2019-05-14T08:59:48.644Z,30.48
2019-05-14T09:00:48.250Z,30.46
2019-05-14T09:01:58.723Z,30.58
2019-05-14T09:02:48.565Z,30.56
2019-05-14T09:03:48.870Z,30.67
2019-05-14T09:04:52.611Z,30.63
2019-05-14T09:05:49.148Z,30.74
2019-05-14T09:06:48.783Z,30.63
2019-05-14T09:07:48.866Z,30.67
2019-05-14T09:08:46.310Z,30.70
2019-05-14T09:09:48.608Z,30.70
2019-05-14T09:10:46.245Z,30.67
2019-05-14T09:11:49.811Z,30.66
2019-05-14T09:12:46.216Z,30.77
2019-05-14T09:13:48.847Z,30.80
2019-05-14T09:14:48.332Z,30.89
2019-05-14T09:15:48.715Z,30.82
2019-05-14T09:16:50.555Z,30.67
2019-05-14T09:17:48.345Z,30.64
2019-05-14T09:18:48.863Z,30.58
2019-05-14T09:19:58.800Z,30.45
2019-05-14T09:21:10.949Z,30.58
2019-05-14T09:22:10.938Z,30.60
2019-05-14T09:23:10.927Z,30.70
2019-05-14T09:24:10.962Z,30.68
2019-05-14T09:25:10.905Z,30.74
2019-05-14T09:26:10.897Z,30.73
2019-05-14T09:27:10.892Z,30.61
2019-05-14T09:28:10.873Z,30.48
2019-05-14T09:29:24.704Z,30.53
2019-05-14T09:30:37.968Z,30.48
2019-05-14T09:31:35.706Z,30.52
2019-05-14T09:32:38.542Z,30.40
2019-05-14T09:33:35.735Z,30.45
2019-05-14T09:35:00.480Z,30.52
2019-05-14T09:36:14.791Z,30.46
2019-05-14T09:37:01.560Z,30.48
2019-05-14T09:38:00.459Z,30.52
2019-05-14T09:39:00.442Z,30.42
2019-05-14T09:40:00.431Z,30.45
2019-05-14T09:41:10.649Z,30.55
2019-05-14T09:42:01.502Z,30.45
2019-05-14T09:43:00.402Z,30.61
2019-05-14T09:44:00.390Z,30.51
2019-05-14T09:45:00.379Z,30.67
2019-05-14T09:46:00.416Z,30.71
2019-05-14T09:47:00.357Z,30.80
2019-05-14T09:48:00.350Z,30.89
2019-05-14T09:49:00.333Z,31.03
2019-05-14T09:50:15.260Z,30.93
2019-05-14T09:51:25.174Z,30.95
2019-05-14T09:52:25.169Z,31.05
2019-05-14T09:53:25.156Z,31.04
2019-05-14T09:54:25.146Z,31.11
2019-05-14T09:55:25.133Z,31.26
2019-05-14T09:56:25.273Z,31.24
2019-05-14T09:57:25.119Z,31.13
2019-05-14T09:58:25.106Z,31.15
2019-05-14T09:59:25.101Z,31.10
2019-05-14T10:00:25.083Z,31.05
2019-05-14T10:01:25.124Z,31.03
2019-05-14T10:02:25.060Z,31.03
2019-05-14T10:03:25.052Z,31.03
2019-05-14T10:04:25.042Z,31.05
2019-05-14T10:05:25.031Z,31.15
2019-05-14T10:06:25.019Z,31.20
2019-05-14T10:07:25.113Z,31.10
2019-05-14T10:08:24.999Z,31.13
2019-05-14T10:09:24.989Z,30.97
2019-05-14T10:10:24.979Z,30.75
2019-05-14T10:11:24.964Z,30.58
2019-05-14T10:12:25.108Z,30.18
2019-05-14T10:13:24.949Z,29.70
2019-05-14T10:14:24.937Z,29.36
2019-05-14T10:15:24.926Z,29.56
2019-05-14T10:16:24.919Z,29.72
2019-05-14T10:17:24.955Z,29.93
2019-05-14T10:18:24.896Z,29.84
2019-05-14T10:19:24.883Z,29.61
2019-05-14T10:20:40.396Z,29.48
2019-05-14T10:21:49.677Z,29.05
2019-05-14T10:22:49.713Z,28.91
2019-05-14T10:23:49.652Z,28.62
2019-05-14T10:24:49.648Z,28.59
2019-05-14T10:25:49.633Z,28.65
2019-05-14T10:26:49.650Z,28.59
2019-05-14T10:27:49.621Z,28.56
2019-05-14T10:28:49.850Z,28.58
2019-05-14T10:29:49.593Z,28.32
2019-05-14T10:30:49.579Z,28.41
2019-05-14T10:31:49.572Z,28.35
2019-05-14T10:32:49.559Z,28.35
2019-05-14T10:33:49.598Z,28.40
2019-05-14T10:34:49.537Z,28.35
2019-05-14T10:35:49.528Z,28.38
2019-05-14T10:36:49.536Z,28.25
2019-05-14T10:37:49.514Z,28.33
2019-05-14T10:38:49.544Z,28.50
2019-05-14T10:39:49.486Z,28.38
2019-05-14T10:40:49.473Z,28.21
2019-05-14T10:41:49.466Z,28.10
2019-05-14T10:42:49.609Z,27.94
2019-05-14T10:43:49.908Z,27.91
2019-05-14T10:44:49.435Z,27.94
2019-05-14T10:45:49.593Z,27.98
2019-05-14T10:46:49.414Z,28.13
2019-05-14T10:47:49.574Z,28.28
2019-05-14T10:48:49.390Z,28.31
2019-05-14T10:49:49.528Z,28.36
2019-05-14T10:50:59.070Z,28.20
2019-05-14T10:52:14.173Z,28.12
2019-05-14T10:53:14.160Z,28.16
2019-05-14T10:54:22.256Z,28.18
2019-05-14T10:55:39.000Z,28.12
2019-05-14T10:56:38.991Z,28.12
2019-05-14T10:57:38.979Z,28.20
2019-05-14T10:58:38.968Z,28.21
2019-05-14T10:59:38.958Z,28.20
2019-05-14T11:00:41.919Z,28.28
2019-05-14T11:01:39.182Z,28.22
2019-05-14T11:02:38.996Z,28.32
2019-05-14T11:03:39.014Z,28.32
2019-05-14T11:04:39.164Z,28.36
2019-05-14T11:05:41.530Z,28.25
2019-05-14T11:06:38.954Z,28.29
2019-05-14T11:07:41.678Z,28.35
2019-05-14T11:08:38.969Z,28.16
2019-05-14T11:09:38.855Z,28.15
2019-05-14T11:10:42.184Z,28.08
2019-05-14T11:11:38.837Z,28.18
2019-05-14T11:12:39.723Z,28.12
2019-05-14T11:13:39.520Z,28.12
2019-05-14T11:14:39.013Z,28.15
2019-05-14T11:15:39.493Z,28.16
2019-05-14T11:16:41.939Z,28.20
2019-05-14T11:17:40.771Z,28.35
2019-05-14T11:18:39.910Z,28.21
2019-05-14T11:19:39.105Z,28.31
2019-05-14T11:20:42.195Z,28.31
2019-05-14T11:21:39.309Z,28.38
2019-05-14T11:22:38.728Z,28.31
2019-05-14T11:23:38.853Z,28.41
2019-05-14T11:24:38.769Z,28.32
2019-05-14T11:25:38.694Z,28.40
2019-05-14T11:26:39.338Z,28.46
2019-05-14T11:27:39.099Z,28.47
2019-05-14T11:28:39.547Z,28.51
2019-05-14T11:29:38.963Z,28.56
2019-05-14T11:30:39.197Z,28.53
2019-05-14T11:31:39.312Z,28.53
2019-05-14T11:32:38.801Z,28.63
2019-05-14T11:33:38.984Z,28.58
2019-05-14T11:34:39.229Z,28.63
2019-05-14T11:35:39.440Z,28.63
2019-05-14T11:36:39.034Z,28.68
2019-05-14T11:37:41.394Z,28.68
2019-05-14T11:38:38.562Z,28.72
2019-05-14T11:39:38.554Z,28.73
2019-05-14T11:40:38.769Z,28.77
2019-05-14T11:41:39.008Z,28.80
2019-05-14T11:42:38.947Z,28.78
2019-05-14T11:43:39.710Z,28.81
2019-05-14T11:44:38.502Z,28.82
2019-05-14T11:45:39.481Z,28.82
2019-05-14T11:46:47.660Z,28.77
2019-05-14T11:47:39.566Z,28.84
2019-05-14T11:48:39.462Z,28.84
2019-05-14T11:49:38.467Z,28.78
2019-05-14T11:50:38.442Z,28.82
2019-05-14T11:51:59.602Z,28.63
2019-05-14T11:52:39.518Z,28.56
2019-05-14T11:53:38.703Z,28.43
2019-05-14T11:54:41.096Z,28.51
2019-05-14T11:55:38.920Z,28.46
2019-05-14T11:56:41.885Z,28.44
2019-05-14T11:57:38.367Z,28.53
2019-05-14T11:58:38.362Z,28.51
2019-05-14T11:59:39.084Z,28.56
2019-05-14T12:00:38.867Z,28.54
2019-05-14T12:01:39.161Z,28.62
2019-05-14T12:02:38.654Z,28.54
2019-05-14T12:03:39.412Z,28.56
2019-05-14T12:04:39.160Z,28.50
2019-05-14T12:05:38.824Z,28.46
2019-05-14T12:06:38.981Z,28.44
2019-05-14T12:07:38.839Z,28.50
2019-05-14T12:08:41.936Z,28.59
2019-05-14T12:09:39.078Z,28.44
2019-05-14T12:10:38.657Z,28.53
2019-05-14T12:11:38.610Z,28.56
2019-05-14T12:12:38.263Z,28.51
2019-05-14T12:13:39.396Z,28.54
2019-05-14T12:14:38.201Z,28.54
2019-05-14T12:15:38.821Z,28.54
2019-05-14T12:16:40.233Z,28.59
2019-05-14T12:17:39.318Z,28.53
2019-05-14T12:18:41.747Z,28.48
2019-05-14T12:19:39.361Z,28.50
2019-05-14T12:20:39.618Z,28.53
2019-05-14T12:21:39.763Z,28.38
2019-05-14T12:22:39.241Z,28.33
2019-05-14T12:23:39.381Z,28.22
2019-05-14T12:24:38.721Z,28.31
2019-05-14T12:25:38.092Z,28.24
2019-05-14T12:26:38.665Z,28.32
2019-05-14T12:27:38.816Z,28.35
2019-05-14T12:28:38.678Z,28.28
2019-05-14T12:29:39.765Z,28.22
2019-05-14T12:30:39.467Z,28.24
2019-05-14T12:31:38.721Z,28.35
2019-05-14T12:32:39.486Z,28.31
2019-05-14T12:33:39.640Z,28.20
2019-05-14T12:34:38.876Z,28.22
2019-05-14T12:35:40.266Z,28.33
2019-05-14T12:36:38.886Z,28.29
2019-05-14T12:37:38.745Z,28.12
2019-05-14T12:38:38.288Z,28.15
2019-05-14T12:39:37.945Z,28.12
2019-05-14T12:40:38.332Z,28.09
2019-05-14T12:41:38.274Z,28.06
2019-05-14T12:42:39.234Z,28.10
2019-05-14T12:43:39.647Z,28.10
2019-05-14T12:44:40.716Z,28.03
2019-05-14T12:45:39.385Z,28.06
2019-05-14T12:46:37.924Z,28.00
2019-05-14T12:47:38.503Z,28.06
2019-05-14T12:48:39.043Z,27.93
2019-05-14T12:49:38.731Z,27.87
2019-05-14T12:50:39.235Z,27.93
2019-05-14T12:51:42.249Z,27.90
2019-05-14T12:52:39.084Z,27.85
2019-05-14T12:53:39.383Z,27.76
2019-05-14T12:54:38.877Z,27.72
2019-05-14T12:55:40.024Z,27.76
2019-05-14T12:56:39.082Z,27.81
2019-05-14T12:57:39.464Z,27.73
2019-05-14T12:58:42.867Z,27.88
2019-05-14T12:59:38.839Z,27.83
2019-05-14T13:00:39.264Z,27.79
2019-05-14T13:01:37.723Z,27.91
2019-05-14T13:02:37.706Z,27.87